Time;durP1;ratioP1;P1;durP2;ratioP2;P2;SDS_P1;SDS_P2;PMS_P1;PMS_P2;Temp;Humidity;BMP_temperature;BMP_pressure;BME280_temperature;BME280_humidity;BME280_pressure;Samples;Min_cycle;Max_cycle;Signal;HPM_P1;HPM_P2
2023/01/16 00:09:10;;;;;;;1999.90;999.90;;;5.40;99.90;;;;;;6679480;88;20185;-78
2023/01/16 00:19:10;;;;;;;1999.90;999.90;;;5.40;99.90;;;;;;6685619;88;20173;-76
2023/01/16 00:29:11;;;;;;;1999.90;999.90;;;5.30;99.90;;;;;;6690291;88;20224;-77
2023/01/16 00:39:11;;;;;;;1999.90;999.90;;;5.20;99.90;;;;;;6685078;88;20237;-77
2023/01/16 00:49:12;;;;;;;1999.90;999.90;;;5.10;99.90;;;;;;6678439;88;20852;-77
2023/01/16 00:59:12;;;;;;;1999.90;999.90;;;5.10;99.90;;;;;;6729196;88;21157;-79
2023/01/16 01:09:13;;;;;;;1999.90;999.90;;;5.20;99.90;;;;;;6731077;88;20171;-76
2023/01/16 01:19:13;;;;;;;1999.90;999.90;;;5.40;99.90;;;;;;6729773;88;21322;-77
2023/01/16 01:29:14;;;;;;;1999.90;999.90;;;5.40;99.90;;;;;;6679858;77;20278;-75
2023/01/16 01:39:14;;;;;;;1999.90;999.90;;;5.30;99.90;;;;;;6658175;88;20718;-75
2023/01/16 01:49:25;;;;;;;1999.90;999.90;;;5.10;99.90;;;;;;6660857;88;20294;-76
2023/01/16 01:59:31;;;;;;;1999.90;999.90;;;5.20;99.90;;;;;;6657333;88;20219;-76
2023/01/16 02:09:33;;;;;;;1999.90;999.90;;;5.10;99.90;;;;;;6661579;88;20737;-75
2023/01/16 02:19:52;;;;;;;1999.90;999.90;;;5.10;99.90;;;;;;6662380;88;20640;-75
2023/01/16 02:30:08;;;;;;;1999.90;999.90;;;4.90;99.90;;;;;;6658795;88;20224;-76
2023/01/16 02:40:33;;;;;;;1999.90;999.90;;;4.80;99.90;;;;;;6660107;88;20189;-75
2023/01/16 02:50:42;;;;;;;1999.90;999.90;;;4.70;99.90;;;;;;6658122;88;20180;-75
2023/01/16 03:00:55;;;;;;;1999.90;999.90;;;4.50;99.90;;;;;;6661442;88;20200;-75
2023/01/16 03:11:09;;;;;;;1999.90;999.90;;;4.30;99.90;;;;;;6657347;88;20210;-75
2023/01/16 03:21:25;;;;;;;1999.90;999.90;;;4.20;99.90;;;;;;6663114;88;20188;-77
2023/01/16 03:31:49;;;;;;;1999.90;999.90;;;4.10;99.90;;;;;;6677574;88;20236;-75
2023/01/16 03:41:53;;;;;;;1999.90;999.90;;;4.10;99.90;;;;;;6661647;88;20226;-75
2023/01/16 03:52:01;;;;;;;1999.90;999.90;;;4.30;99.90;;;;;;6657384;89;20792;-74
2023/01/16 04:02:32;;;;;;;1999.90;999.90;;;4.40;99.90;;;;;;6663859;88;20312;-75
2023/01/16 04:12:37;;;;;;;1999.90;999.90;;;4.60;99.90;;;;;;6669867;88;20639;-75
2023/01/16 04:22:37;;;;;;;1999.90;999.90;;;4.80;99.90;;;;;;6659809;88;20779;-75
2023/01/16 04:32:38;;;;;;;1999.90;999.90;;;5.00;99.90;;;;;;6659242;88;20223;-75
2023/01/16 04:42:39;;;;;;;1999.90;999.90;;;5.10;99.90;;;;;;6653490;88;20199;-75
2023/01/16 04:52:42;;;;;;;1999.90;999.90;;;5.20;99.90;;;;;;6659777;88;20971;-75
2023/01/16 05:02:42;;;;;;;1999.90;999.90;;;5.20;99.90;;;;;;6661091;88;20209;-75
2023/01/16 05:12:43;;;;;;;1999.90;999.90;;;5.10;99.90;;;;;;6658849;88;20330;-75
2023/01/16 05:22:43;;;;;;;1999.90;999.90;;;5.10;99.90;;;;;;6660656;88;20207;-75
2023/01/16 05:32:44;;;;;;;1999.90;999.90;;;5.10;99.90;;;;;;6663081;88;20290;-75
2023/01/16 05:42:47;;;;;;;1999.90;999.90;;;5.20;99.90;;;;;;6657710;88;20402;-75
2023/01/16 05:52:48;;;;;;;1999.90;999.90;;;5.20;99.90;;;;;;6663860;88;20219;-75
2023/01/16 06:02:49;;;;;;;1999.90;999.90;;;5.30;99.90;;;;;;6657072;88;20282;-75
2023/01/16 06:12:49;;;;;;;1999.90;999.90;;;5.30;99.90;;;;;;6661021;88;21536;-74
2023/01/16 06:22:50;;;;;;;1999.90;999.90;;;5.30;99.90;;;;;;6658771;88;20188;-75
2023/01/16 06:32:50;;;;;;;1999.90;999.90;;;5.30;99.90;;;;;;6659820;88;20165;-75
2023/01/16 06:42:51;;;;;;;1999.90;999.90;;;5.30;99.90;;;;;;6667750;88;20215;-74
2023/01/16 06:52:51;;;;;;;1999.90;999.90;;;5.30;99.90;;;;;;6663867;88;20235;-76
2023/01/16 07:02:57;;;;;;;1999.90;999.90;;;5.30;99.90;;;;;;6668792;88;20236;-74
2023/01/16 07:12:57;;;;;;;1999.90;999.90;;;5.30;99.90;;;;;;6668518;88;20201;-75
2023/01/16 07:22:58;;;;;;;1999.90;999.90;;;5.50;99.90;;;;;;6671834;88;20208;-76
2023/01/16 07:33:19;;;;;;;1999.90;999.90;;;5.60;99.90;;;;;;6686233;76;20396;-78
2023/01/16 07:43:19;;;;;;;1999.90;999.90;;;5.70;99.90;;;;;;6729171;88;20275;-78
2023/01/16 07:53:22;;;;;;;1999.90;999.90;;;5.70;99.90;;;;;;6729977;88;20251;-79
2023/01/16 08:03:24;;;;;;;1999.90;999.90;;;5.30;99.90;;;;;;6730481;88;20210;-78
2023/01/16 08:13:25;;;;;;;1999.90;999.90;;;5.10;99.90;;;;;;6731176;88;20342;-80
2023/01/16 08:23:26;;;;;;;1999.90;999.90;;;4.90;99.90;;;;;;6730870;88;20329;-78
2023/01/16 08:33:26;;;;;;;1999.90;999.90;;;4.80;99.90;;;;;;6730636;88;20428;-78
2023/01/16 08:53:46;;;;;;;1999.90;999.90;;;4.80;99.90;;;;;;6744752;88;20200;-79
2023/01/16 09:03:47;;;;;;;1999.90;999.90;;;4.70;99.90;;;;;;6732654;88;20300;-80
2023/01/16 09:13:50;;;;;;;1999.90;999.90;;;4.80;99.90;;;;;;6731792;88;20188;-78
2023/01/16 09:23:52;;;;;;;1999.90;999.90;;;4.80;99.90;;;;;;6717932;88;20586;-78
2023/01/16 09:33:54;;;;;;;1999.90;999.90;;;4.70;99.90;;;;;;6715994;88;20201;-78
2023/01/16 09:43:54;;;;;;;1999.90;999.90;;;4.70;99.90;;;;;;6713492;88;20204;-78
2023/01/16 10:04:24;;;;;;;1999.90;999.90;;;4.70;99.90;;;;;;6712701;88;20275;-78
2023/01/16 10:14:34;;;;;;;1999.90;999.90;;;4.60;99.90;;;;;;6713993;88;20564;-78
2023/01/16 10:24:53;;;;;;;1999.90;999.90;;;4.60;99.90;;;;;;6715162;88;20319;-78
2023/01/16 10:35:03;;;;;;;1999.90;999.90;;;4.60;99.90;;;;;;6717419;88;20203;-79
2023/01/16 11:05:32;;;;;;;1999.90;999.90;;;4.70;99.90;;;;;;6737200;88;20833;-78
2023/01/16 11:25:56;;;;;;;1999.90;999.90;;;4.90;99.90;;;;;;6717211;88;20233;-80
2023/01/16 11:36:00;;;;;;;1999.90;999.90;;;5.20;99.90;;;;;;6722308;88;20216;-78
2023/01/16 11:46:12;;;;;;;1999.90;999.90;;;5.50;99.90;;;;;;6715474;88;20721;-78
2023/01/16 11:56:39;;;;;;;1999.90;999.90;;;6.00;99.90;;;;;;6715135;88;20209;-78
2023/01/16 12:07:07;;;;;;;1999.90;999.90;;;5.50;99.90;;;;;;6713341;88;20193;-79
2023/01/16 12:17:23;;;;;;;1999.90;999.90;;;5.40;99.90;;;;;;6714073;88;20694;-80
2023/01/16 12:27:58;;;;;;;1999.90;999.90;;;5.30;99.90;;;;;;6713113;88;20187;-78
2023/01/16 12:38:18;;;;;;;1999.90;999.90;;;5.30;99.90;;;;;;6712853;88;20215;-78
2023/01/16 12:48:25;;;;;;;1999.90;999.90;;;5.40;99.90;;;;;;6710770;88;20194;-78
2023/01/16 12:58:27;;;;;;;;;;;5.20;99.90;;;;;;6712950;88;20200;-79
2023/01/16 13:08:32;;;;;;;1999.90;999.90;;;5.20;99.90;;;;;;6708067;88;20400;-79
2023/01/16 13:19:11;;;;;;;1999.90;999.90;;;5.20;99.90;;;;;;6711552;88;20190;-81
2023/01/16 13:39:38;;;;;;;1999.90;999.90;;;5.30;99.90;;;;;;6720551;88;20210;-76
2023/01/16 13:49:39;;;;;;;1999.90;999.90;;;5.20;99.90;;;;;;6710204;88;20341;-76
2023/01/16 13:59:56;;;;;;;1999.90;999.90;;;5.20;99.90;;;;;;6711344;88;20202;-76
2023/01/16 14:10:17;;;;;;;1999.90;999.90;;;5.50;99.90;;;;;;6707322;88;20269;-76
2023/01/16 14:20:43;;;;;;;1999.90;999.90;;;5.80;99.90;;;;;;6707425;88;20669;-76
2023/01/16 14:30:45;;;;;;;1999.90;999.90;;;5.70;99.90;;;;;;6713824;88;20214;-76
2023/01/16 15:12:10;;;;;;;1999.90;999.90;;;5.30;99.90;;;;;;6706526;88;20302;-76
2023/01/16 15:22:20;;;;;;;1999.90;999.90;;;5.30;99.90;;;;;;6705668;88;20227;-75
2023/01/16 15:32:21;;;;;;;1999.90;999.90;;;5.30;99.90;;;;;;6709462;88;20215;-75
2023/01/16 15:52:49;;;;;;;1999.90;999.90;;;5.10;99.90;;;;;;6708548;88;20258;-76
2023/01/16 16:02:50;;;;;;;1999.90;999.90;;;5.10;99.90;;;;;;6702480;88;20298;-75
2023/01/16 16:12:50;;;;;;;1999.90;999.90;;;5.10;99.90;;;;;;6708118;88;20182;-75
2023/01/16 16:22:52;;;;;;;1999.90;999.90;;;5.00;99.90;;;;;;6706879;88;20190;-76
2023/01/16 16:32:54;;;;;;;1999.90;999.90;;;5.00;99.90;;;;;;6702142;88;20701;-75
2023/01/16 16:42:57;;;;;;;1999.90;999.90;;;5.00;99.90;;;;;;6702890;88;20221;-76
2023/01/16 16:53:22;;;;;;;1999.90;999.90;;;5.00;99.90;;;;;;6706234;88;20314;-77
2023/01/16 17:03:26;;;;;;;1999.90;999.90;;;5.00;99.90;;;;;;6709883;88;20194;-76
2023/01/16 17:13:26;;;;;;;1999.90;999.90;;;5.00;99.90;;;;;;6707667;88;20612;-76
2023/01/16 17:23:27;;;;;;;1999.90;999.90;;;4.90;99.90;;;;;;6721310;88;20197;-77
2023/01/16 17:33:30;;;;;;;1999.90;999.90;;;4.90;99.90;;;;;;6714916;88;20305;-76
2023/01/16 17:53:51;;;;;;;1999.90;999.90;;;5.00;99.90;;;;;;6723942;88;20240;-76
2023/01/16 18:04:00;;;;;;;1999.90;999.90;;;5.20;99.90;;;;;;6724157;88;20734;-76
2023/01/16 18:24:20;;;;;;;1999.90;999.90;;;5.20;99.90;;;;;;6722162;88;20743;-75
2023/01/16 18:34:20;;;;;;;1999.90;999.90;;;5.10;99.90;;;;;;6728959;88;20320;-75
2023/01/16 19:05:02;;;;;;;1999.90;999.90;;;5.00;99.90;;;;;;6719109;88;20181;-76
2023/01/16 19:15:04;;;;;;;1999.90;999.90;;;5.00;99.90;;;;;;6719528;88;20828;-76
2023/01/16 19:25:05;;;;;;;1999.90;999.90;;;4.90;99.90;;;;;;6717516;88;20202;-76
2023/01/16 19:35:06;;;;;;;1999.90;999.90;;;4.70;99.90;;;;;;6718846;88;20193;-74
2023/01/16 19:55:27;;;;;;;1999.90;999.90;;;3.90;99.90;;;;;;6712636;88;20683;-74
2023/01/16 20:05:28;;;;;;;1999.90;999.90;;;3.60;99.90;;;;;;6708953;88;20361;-75
2023/01/16 20:15:28;;;;;;;1999.90;999.90;;;3.50;99.90;;;;;;6721221;88;20631;-74
2023/01/16 20:25:29;;;;;;;1999.90;999.90;;;3.40;99.90;;;;;;6702132;88;20193;-75
2023/01/16 20:35:30;;;;;;;1999.90;999.90;;;3.50;99.90;;;;;;6714835;88;20213;-75
2023/01/16 20:55:50;;;;;;;1999.90;999.90;;;3.60;99.90;;;;;;6713953;88;20200;-75
2023/01/16 21:05:50;;;;;;;1999.90;999.90;;;3.80;99.90;;;;;;6694940;88;20237;-75
2023/01/16 21:21:46;;;;;;;1999.90;999.90;;;3.90;99.90;;;;;;6715159;88;20836;-75
2023/01/16 21:26:14;;;;;;;1999.90;999.90;;;4.00;99.90;;;;;;6711266;88;20182;-75
2023/01/16 21:36:14;;;;;;;1999.90;999.90;;;4.10;99.90;;;;;;6715160;88;20190;-75
2023/01/16 21:46:27;;;;;;;1999.90;999.90;;;4.20;99.90;;;;;;6704398;88;20199;-74
2023/01/16 21:56:27;;;;;;;1999.90;999.90;;;4.20;99.90;;;;;;6709574;88;20204;-74
2023/01/16 22:06:28;;;;;;;1999.90;999.90;;;4.20;99.90;;;;;;6724516;88;20169;-74
2023/01/16 22:26:48;;;;;;;1999.90;999.90;;;3.90;99.90;;;;;;6712757;88;20202;-75
2023/01/16 22:36:48;;;;;;;1999.90;999.90;;;4.00;99.90;;;;;;6705562;88;20315;-75
2023/01/16 22:46:49;;;;;;;1999.90;999.90;;;3.90;99.90;;;;;;6704529;88;20229;-74
2023/01/16 22:56:49;;;;;;;1999.90;999.90;;;4.10;99.90;;;;;;6708296;88;20326;-75
2023/01/16 23:06:50;;;;;;;1999.90;999.90;;;4.10;99.90;;;;;;6699432;88;20184;-74
2023/01/16 23:16:53;;;;;;;1999.90;999.90;;;4.30;99.90;;;;;;6708951;88;20194;-75
2023/01/16 23:26:55;;;;;;;1999.90;999.90;;;4.10;99.90;;;;;;6722365;88;20178;-75
2023/01/16 23:36:56;;;;;;;1999.90;999.90;;;4.30;99.90;;;;;;6716998;88;20221;-75
2023/01/16 23:47:16;;;;;;;1999.90;999.90;;;3.90;99.90;;;;;;6718362;88;20190;-74
2023/01/16 23:57:22;;;;;;;1999.90;999.90;;;3.70;99.90;;;;;;6718289;88;20182;-75
